createdAt,value
2017-09-19T00:00:57.687Z,74.50
2017-09-19T00:03:25.116Z,74.40
2017-09-19T00:05:53.023Z,74.60
2017-09-19T00:08:20.453Z,74.60
2017-09-19T00:10:48.359Z,74.80
2017-09-19T00:13:15.820Z,74.70
2017-09-19T00:15:43.284Z,74.80
2017-09-19T00:18:10.710Z,74.80
2017-09-19T00:20:38.613Z,74.90
2017-09-19T00:23:06.032Z,74.90
2017-09-19T00:25:34.039Z,75.20
2017-09-19T00:28:01.467Z,75.20
2017-09-19T00:30:29.289Z,75.40
2017-09-19T00:32:56.951Z,75.40
2017-09-19T00:35:24.377Z,75.60
2017-09-19T00:37:52.192Z,75.60
2017-09-19T00:40:19.635Z,75.60
2017-09-19T00:42:47.103Z,75.60
2017-09-19T00:45:14.537Z,75.70
2017-09-19T00:47:42.381Z,75.60
2017-09-19T00:50:09.918Z,75.60
2017-09-19T00:52:37.762Z,76.00
2017-09-19T00:55:05.277Z,76.00
2017-09-19T00:57:32.757Z,75.90
2017-09-19T01:00:00.291Z,76.00
2017-09-19T01:02:28.580Z,76.10
2017-09-19T01:04:56.017Z,75.90
2017-09-19T01:07:23.489Z,75.90
2017-09-19T01:09:51.082Z,76.10
2017-09-19T01:12:19.891Z,76.10
2017-09-19T01:14:47.724Z,76.10
2017-09-19T01:17:15.206Z,76.10
2017-09-19T01:19:42.886Z,76.00
2017-09-19T01:22:10.759Z,76.10
2017-09-19T01:24:38.605Z,76.10
2017-09-19T01:27:06.050Z,76.20
2017-09-19T01:29:33.500Z,76.10
2017-09-19T01:32:00.918Z,76.00
2017-09-19T01:34:28.391Z,75.90
2017-09-19T01:36:55.838Z,75.80
2017-09-19T01:39:23.279Z,75.70
2017-09-19T01:41:50.901Z,75.60
2017-09-19T01:44:18.380Z,75.60
2017-09-19T01:46:45.866Z,75.60
2017-09-19T01:49:13.418Z,75.50
2017-09-19T01:51:40.945Z,75.40
2017-09-19T01:54:09.583Z,75.50
2017-09-19T01:56:37.076Z,75.50
2017-09-19T01:59:04.925Z,75.50
2017-09-19T02:01:32.360Z,75.50
2017-09-19T02:03:59.806Z,75.50
2017-09-19T02:06:27.297Z,75.50
2017-09-19T02:08:54.747Z,75.40
2017-09-19T02:11:22.224Z,75.50
2017-09-19T02:13:49.891Z,75.40
2017-09-19T02:16:17.330Z,75.40
2017-09-19T02:18:44.780Z,75.20
2017-09-19T02:21:13.516Z,75.20
2017-09-19T02:23:41.397Z,75.40
2017-09-19T02:26:09.236Z,75.40
2017-09-19T02:28:36.804Z,75.40
2017-09-19T02:31:04.264Z,75.40
2017-09-19T02:33:31.734Z,75.30
2017-09-19T02:35:59.375Z,75.40
2017-09-19T02:38:26.849Z,75.30
2017-09-19T02:40:54.343Z,75.30
2017-09-19T02:43:21.850Z,75.30
2017-09-19T02:45:49.288Z,75.30
2017-09-19T02:48:16.737Z,75.40
2017-09-19T02:50:44.851Z,75.70
2017-09-19T02:53:12.324Z,75.70
2017-09-19T02:55:39.792Z,75.70
2017-09-19T02:58:07.334Z,75.80
2017-09-19T03:00:34.807Z,75.90
2017-09-19T03:03:02.577Z,75.80
2017-09-19T03:05:30.052Z,75.90
2017-09-19T03:07:57.508Z,75.80
2017-09-19T03:10:24.943Z,75.80
2017-09-19T03:12:52.710Z,75.70
2017-09-19T03:15:20.153Z,75.60
2017-09-19T03:17:48.010Z,75.80
2017-09-19T03:20:15.488Z,75.80
2017-09-19T03:22:43.361Z,76.00
2017-09-19T03:25:11.231Z,75.80
2017-09-19T03:27:38.726Z,75.80
2017-09-19T03:30:06.224Z,75.70
2017-09-19T03:32:33.693Z,75.70
2017-09-19T03:35:02.741Z,75.50
2017-09-19T03:37:30.277Z,75.40
2017-09-19T03:39:58.115Z,75.20
2017-09-19T03:42:25.956Z,75.20
2017-09-19T03:44:53.414Z,75.10
2017-09-19T03:47:20.921Z,75.20
2017-09-19T03:49:48.393Z,75.30
2017-09-19T03:52:16.221Z,75.30
2017-09-19T03:54:43.675Z,75.30
2017-09-19T03:57:11.278Z,75.30
2017-09-19T03:59:38.710Z,75.50
2017-09-19T04:02:06.131Z,75.70
2017-09-19T04:04:33.761Z,75.70
2017-09-19T04:07:01.204Z,75.70
2017-09-19T04:09:28.763Z,75.70
2017-09-19T04:11:56.823Z,75.70
2017-09-19T04:14:24.262Z,75.70
2017-09-19T04:16:51.696Z,75.90
2017-09-19T04:19:19.627Z,75.60
2017-09-19T04:21:47.064Z,75.60
2017-09-19T04:24:14.515Z,75.70
2017-09-19T04:26:43.637Z,75.80
2017-09-19T04:29:11.090Z,75.80
2017-09-19T04:31:38.558Z,75.70
2017-09-19T04:34:06.030Z,75.90
2017-09-19T04:36:33.444Z,76.10
2017-09-19T04:39:01.293Z,76.40
2017-09-19T04:41:28.845Z,76.40
2017-09-19T04:43:56.285Z,76.30
2017-09-19T04:46:23.724Z,76.30
2017-09-19T04:48:51.188Z,76.30
2017-09-19T04:51:18.630Z,76.40
2017-09-19T04:53:46.934Z,76.70
2017-09-19T04:56:14.644Z,76.70
2017-09-19T04:58:42.093Z,76.70
2017-09-19T05:01:09.528Z,76.70
2017-09-19T05:03:37.837Z,76.70
2017-09-19T05:06:05.276Z,76.60
2017-09-19T05:08:32.700Z,76.70
2017-09-19T05:11:00.700Z,76.80
2017-09-19T05:13:28.144Z,76.80
2017-09-19T05:15:56.039Z,77.10
2017-09-19T05:18:25.056Z,77.10
2017-09-19T05:20:52.506Z,77.30
2017-09-19T05:23:19.938Z,77.30
2017-09-19T05:25:47.793Z,77.40
2017-09-19T05:28:15.607Z,77.30
2017-09-19T05:30:43.317Z,77.30
2017-09-19T05:33:10.795Z,77.00
2017-09-19T05:35:38.612Z,76.70
2017-09-19T05:38:06.073Z,76.70
2017-09-19T05:40:33.627Z,77.00
2017-09-19T05:43:01.067Z,76.90
2017-09-19T05:45:28.898Z,76.90
2017-09-19T05:47:56.341Z,76.90
2017-09-19T05:50:23.778Z,76.80
2017-09-19T05:52:51.229Z,76.80
2017-09-19T05:55:18.693Z,76.80
2017-09-19T05:57:46.120Z,76.80
2017-09-19T06:00:13.668Z,76.80
2017-09-19T06:02:41.114Z,76.70
2017-09-19T06:05:08.546Z,76.60
2017-09-19T06:07:35.978Z,76.60
2017-09-19T06:10:03.843Z,76.20
2017-09-19T06:12:31.283Z,76.20
2017-09-19T06:14:58.727Z,76.30
2017-09-19T06:17:26.343Z,76.30
2017-09-19T06:19:54.177Z,76.20
2017-09-19T06:22:22.135Z,76.20
2017-09-19T06:24:50.384Z,76.30
2017-09-19T06:27:17.839Z,76.40
2017-09-19T06:29:45.264Z,76.00
2017-09-19T06:32:12.756Z,75.60
2017-09-19T06:34:40.570Z,75.60
2017-09-19T06:37:07.986Z,75.60
2017-09-19T06:39:36.514Z,75.80
2017-09-19T06:42:03.946Z,75.80
2017-09-19T06:44:31.371Z,75.80
2017-09-19T06:46:59.308Z,75.80
2017-09-19T06:49:26.751Z,75.70
2017-09-19T06:51:54.202Z,75.60
2017-09-19T06:54:21.919Z,75.60
2017-09-19T06:56:49.337Z,75.50
2017-09-19T06:59:16.804Z,75.50
2017-09-19T07:01:44.569Z,75.50
2017-09-19T07:04:12.012Z,75.60
2017-09-19T07:06:39.850Z,75.40
2017-09-19T07:09:07.387Z,75.40
2017-09-19T07:11:34.813Z,75.30
2017-09-19T07:14:02.616Z,75.20
2017-09-19T07:16:30.056Z,75.20
2017-09-19T07:18:57.503Z,75.20
2017-09-19T07:21:25.108Z,75.10
2017-09-19T07:23:52.536Z,74.80
2017-09-19T07:26:20.022Z,74.40
2017-09-19T07:28:47.450Z,74.60
2017-09-19T07:31:15.295Z,74.20
2017-09-19T07:33:42.702Z,74.20
2017-09-19T07:36:10.121Z,74.30
2017-09-19T07:38:37.745Z,74.30
2017-09-19T07:41:05.194Z,74.20
2017-09-19T07:43:32.646Z,74.20
2017-09-19T07:46:00.095Z,74.00
2017-09-19T07:48:27.920Z,73.80
2017-09-19T07:50:55.402Z,73.80
2017-09-19T07:53:22.934Z,73.50
2017-09-19T07:55:50.368Z,73.50
2017-09-19T07:58:17.792Z,73.40
2017-09-19T08:00:45.230Z,73.20
2017-09-19T08:03:12.668Z,73.00
2017-09-19T08:05:40.380Z,73.40
2017-09-19T08:08:07.857Z,73.10
2017-09-19T08:10:35.697Z,72.30
2017-09-19T08:13:03.506Z,72.30
2017-09-19T08:15:31.248Z,72.20
2017-09-19T08:17:58.775Z,72.50
2017-09-19T08:20:26.221Z,72.40
2017-09-19T08:22:53.687Z,72.20
2017-09-19T08:25:21.127Z,72.30
2017-09-19T08:27:48.558Z,71.50
2017-09-19T08:30:16.056Z,71.80
2017-09-19T08:32:43.485Z,71.50
2017-09-19T08:35:10.928Z,71.80
2017-09-19T08:37:38.392Z,71.60
2017-09-19T08:40:05.860Z,71.40
2017-09-19T08:42:33.291Z,71.30
2017-09-19T08:45:01.878Z,70.90
2017-09-19T08:47:29.308Z,70.60
2017-09-19T08:49:56.739Z,70.20
2017-09-19T08:52:24.370Z,70.30
2017-09-19T08:54:51.806Z,70.00
2017-09-19T08:57:19.235Z,70.20
2017-09-19T08:59:47.908Z,69.80
2017-09-19T09:02:15.324Z,69.80
2017-09-19T09:04:42.812Z,69.90
2017-09-19T09:07:10.266Z,69.50
2017-09-19T09:09:37.708Z,69.40
2017-09-19T09:12:05.130Z,69.40
2017-09-19T09:14:33.969Z,69.00
2017-09-19T09:17:01.437Z,69.00
2017-09-19T09:19:28.859Z,68.60
2017-09-19T09:21:56.706Z,69.20
2017-09-19T09:24:24.145Z,69.20
2017-09-19T09:26:51.610Z,69.00
2017-09-19T09:29:19.078Z,68.90
2017-09-19T09:31:47.797Z,68.90
2017-09-19T09:34:15.247Z,69.00
2017-09-19T09:36:42.702Z,68.70
2017-09-19T09:39:10.163Z,68.40
2017-09-19T09:41:37.586Z,68.00
2017-09-19T09:44:05.042Z,67.20
2017-09-19T09:46:32.481Z,67.20
2017-09-19T09:49:00.301Z,67.70
2017-09-19T09:51:27.756Z,67.70
2017-09-19T09:53:55.216Z,66.10
2017-09-19T09:56:22.664Z,66.00
2017-09-19T09:58:50.142Z,65.20
2017-09-19T10:01:17.572Z,65.30
2017-09-19T10:03:45.015Z,64.50
2017-09-19T10:06:12.535Z,64.00
2017-09-19T10:08:39.956Z,63.60
2017-09-19T10:11:07.395Z,63.40
2017-09-19T10:13:35.259Z,62.20
2017-09-19T10:16:02.693Z,62.20
2017-09-19T10:18:30.134Z,61.00
2017-09-19T10:20:57.599Z,60.50
2017-09-19T10:23:25.046Z,59.90
2017-09-19T10:25:52.488Z,59.10
2017-09-19T10:28:19.966Z,58.90
2017-09-19T10:30:47.430Z,58.50
2017-09-19T10:33:14.961Z,58.40
2017-09-19T10:35:43.301Z,59.30
2017-09-19T10:38:10.715Z,59.30
2017-09-19T10:40:38.227Z,59.10
2017-09-19T10:43:05.686Z,58.60
2017-09-19T10:45:33.116Z,58.30
2017-09-19T10:48:00.547Z,58.80
2017-09-19T10:50:28.167Z,59.20
2017-09-19T10:52:55.606Z,59.30
2017-09-19T10:55:23.132Z,59.60
2017-09-19T10:57:50.587Z,64.00
2017-09-19T11:00:18.012Z,66.70
2017-09-19T11:02:45.456Z,67.70
2017-09-19T11:05:12.904Z,68.00
2017-09-19T11:07:40.739Z,68.40
2017-09-19T11:10:08.171Z,68.40
2017-09-19T11:12:35.972Z,68.80
2017-09-19T11:15:03.413Z,70.40
2017-09-19T11:17:30.858Z,71.40
2017-09-19T11:19:58.484Z,72.60
2017-09-19T11:22:26.360Z,74.10
2017-09-19T11:24:54.228Z,74.20
2017-09-19T11:27:22.099Z,74.40
2017-09-19T11:29:49.940Z,74.80
2017-09-19T11:32:17.374Z,74.80
2017-09-19T11:34:44.831Z,74.40
2017-09-19T11:37:12.281Z,74.10
2017-09-19T11:39:39.749Z,74.90
2017-09-19T11:42:07.243Z,75.00
2017-09-19T11:44:34.742Z,75.40
2017-09-19T11:47:02.570Z,76.50
2017-09-19T11:49:30.204Z,76.50
2017-09-19T11:51:57.639Z,76.50
2017-09-19T11:54:25.112Z,77.20
2017-09-19T11:56:52.950Z,76.80
2017-09-19T11:59:20.360Z,76.90
2017-09-19T12:01:47.783Z,76.90
2017-09-19T12:04:15.715Z,77.40
2017-09-19T12:06:43.139Z,77.40
2017-09-19T12:09:10.570Z,76.10
2017-09-19T12:11:38.009Z,76.00
2017-09-19T12:14:05.443Z,75.80
2017-09-19T12:16:32.866Z,75.80
2017-09-19T12:19:00.699Z,77.50
2017-09-19T12:21:28.134Z,77.60
2017-09-19T12:23:55.562Z,76.80
2017-09-19T12:26:23.416Z,76.40
2017-09-19T12:28:50.928Z,76.40
2017-09-19T12:31:18.341Z,76.60
2017-09-19T12:33:45.792Z,76.90
2017-09-19T12:49:09.999Z,76.90
2017-09-19T12:51:37.493Z,76.50
2017-09-19T12:54:04.900Z,76.10
2017-09-19T12:56:32.508Z,76.10
2017-09-19T12:59:00.752Z,76.30
2017-09-19T13:01:28.199Z,76.00
2017-09-19T13:03:56.077Z,76.30
2017-09-19T13:06:23.492Z,76.50
2017-09-19T13:08:50.910Z,75.20
2017-09-19T13:11:18.916Z,76.10
2017-09-19T13:13:46.340Z,76.10
2017-09-19T13:16:14.165Z,75.70
2017-09-19T13:18:41.596Z,75.70
2017-09-19T13:21:09.016Z,76.60
2017-09-19T13:23:36.502Z,75.70
2017-09-19T13:26:04.507Z,74.40
2017-09-19T13:28:31.971Z,74.40
2017-09-19T13:31:11.292Z,74.70
2017-09-19T13:33:57.576Z,75.70
2017-09-19T13:36:25.268Z,75.90
2017-09-19T13:38:52.736Z,76.40
2017-09-19T13:41:20.168Z,76.10
2017-09-19T13:43:48.259Z,75.50
2017-09-19T13:46:15.949Z,75.50
2017-09-19T13:48:43.360Z,75.80
2017-09-19T13:51:11.395Z,76.50
2017-09-19T13:53:38.812Z,76.50
2017-09-19T13:56:06.303Z,76.80
2017-09-19T13:58:33.948Z,77.60
2017-09-19T14:01:01.384Z,78.20
2017-09-19T14:03:29.292Z,78.30
2017-09-19T14:05:57.736Z,78.30
2017-09-19T14:08:25.139Z,77.40
2017-09-19T14:10:52.552Z,76.80
2017-09-19T14:13:20.041Z,76.30
2017-09-19T14:15:47.481Z,74.30
2017-09-19T14:18:14.936Z,73.40
2017-09-19T14:20:42.527Z,71.80
2017-09-19T14:23:09.939Z,72.70
2017-09-19T14:25:37.398Z,74.00
2017-09-19T14:28:05.526Z,75.00
2017-09-19T14:30:32.984Z,74.50
2017-09-19T14:33:00.399Z,74.90
2017-09-19T14:35:28.032Z,75.90
2017-09-19T14:37:55.459Z,75.60
2017-09-19T14:40:23.272Z,76.90
2017-09-19T14:42:50.725Z,76.90
2017-09-19T14:45:18.229Z,76.40
2017-09-19T14:47:45.647Z,76.90
2017-09-19T14:50:13.098Z,77.20
2017-09-19T14:52:40.516Z,77.90
2017-09-19T14:55:07.930Z,77.90
2017-09-19T14:57:35.597Z,78.40
2017-09-19T15:00:03.044Z,78.30
2017-09-19T15:02:30.481Z,78.10
2017-09-19T15:04:57.996Z,77.70
2017-09-19T15:07:25.444Z,77.90
2017-09-19T15:09:52.862Z,76.70
2017-09-19T15:12:20.300Z,76.20
2017-09-19T15:14:47.735Z,76.70
2017-09-19T15:17:15.172Z,76.20
2017-09-19T15:19:42.971Z,76.80
2017-09-19T15:22:10.388Z,76.80
2017-09-19T15:24:38.224Z,77.50
2017-09-19T15:27:06.125Z,77.50
2017-09-19T15:29:33.688Z,77.80
2017-09-19T15:32:01.533Z,77.50
2017-09-19T15:34:28.960Z,77.50
2017-09-19T15:36:56.396Z,77.10
2017-09-19T15:39:23.835Z,77.10
2017-09-19T15:41:51.362Z,77.10
2017-09-19T15:44:18.803Z,76.60
2017-09-19T15:46:46.248Z,76.60
2017-09-19T15:49:14.195Z,76.20
2017-09-19T15:51:41.615Z,76.20
2017-09-19T15:54:09.054Z,76.40
2017-09-19T15:56:36.478Z,75.80
2017-09-19T15:59:03.942Z,75.90
2017-09-19T16:01:31.662Z,73.80
2017-09-19T16:03:59.093Z,73.80
2017-09-19T16:06:26.573Z,73.20
2017-09-19T16:08:54.618Z,75.10
2017-09-19T16:11:22.101Z,75.20
2017-09-19T16:13:49.530Z,75.10
2017-09-19T16:16:17.193Z,75.40
2017-09-19T16:18:44.634Z,75.20
2017-09-19T16:21:12.052Z,76.20
2017-09-19T16:23:39.798Z,76.50
2017-09-19T16:26:07.811Z,77.10
2017-09-19T16:28:35.264Z,77.10
2017-09-19T16:31:02.716Z,77.60
2017-09-19T16:33:30.139Z,77.70
2017-09-19T16:35:57.599Z,77.80
2017-09-19T16:38:25.120Z,78.00
2017-09-19T16:40:52.571Z,78.20
2017-09-19T16:43:20.246Z,78.10
2017-09-19T16:45:47.704Z,78.00
2017-09-19T16:48:15.115Z,78.10
2017-09-19T16:50:42.583Z,78.10
2017-09-19T16:53:09.984Z,78.00
2017-09-19T16:55:38.365Z,78.20
2017-09-19T16:58:06.041Z,78.40
2017-09-19T17:00:33.461Z,78.60
2017-09-19T17:03:00.901Z,78.40
2017-09-19T17:05:28.352Z,78.80
2017-09-19T17:07:55.787Z,78.10
2017-09-19T17:10:23.222Z,76.90
2017-09-19T17:12:51.055Z,75.10
2017-09-19T17:15:18.525Z,75.10
2017-09-19T17:17:45.944Z,75.40
2017-09-19T17:20:13.385Z,75.70
2017-09-19T17:22:41.424Z,77.30
2017-09-19T17:25:08.849Z,77.30
2017-09-19T17:27:36.306Z,77.80
2017-09-19T17:30:03.763Z,78.10
2017-09-19T17:32:31.178Z,78.30
2017-09-19T17:34:58.610Z,78.20
2017-09-19T17:37:26.101Z,78.40
2017-09-19T17:39:53.507Z,78.10
2017-09-19T17:42:21.080Z,78.70
2017-09-19T17:44:48.517Z,79.20
2017-09-19T17:47:16.526Z,79.50
2017-09-19T17:49:43.931Z,79.60
2017-09-19T17:52:11.758Z,78.00
2017-09-19T17:54:39.411Z,78.00
2017-09-19T17:57:06.840Z,77.70
2017-09-19T17:59:34.650Z,74.10
2017-09-19T18:02:02.303Z,74.10
2017-09-19T18:04:29.735Z,74.80
2017-09-19T18:06:57.223Z,74.00
2017-09-19T18:09:24.852Z,73.30
2017-09-19T18:11:52.774Z,73.60
2017-09-19T18:14:20.189Z,73.60
2017-09-19T18:16:47.668Z,73.50
2017-09-19T18:19:15.490Z,73.20
2017-09-19T18:21:43.680Z,73.20
2017-09-19T18:24:11.713Z,73.70
2017-09-19T18:26:40.217Z,74.70
2017-09-19T18:29:08.733Z,75.70
2017-09-19T18:31:37.885Z,76.80
2017-09-19T18:34:06.883Z,76.90
2017-09-19T18:36:34.467Z,76.90
2017-09-19T18:39:02.215Z,76.70
2017-09-19T18:41:29.644Z,76.60
2017-09-19T18:43:57.464Z,76.30
2017-09-19T18:46:25.114Z,76.30
2017-09-19T18:48:52.553Z,76.80
2017-09-19T18:51:20.455Z,76.60
2017-09-19T18:53:47.944Z,76.60
2017-09-19T18:56:15.340Z,77.40
2017-09-19T18:58:43.174Z,77.90
2017-09-19T19:01:12.140Z,77.90
2017-09-19T19:03:39.593Z,78.10
2017-09-19T19:06:07.395Z,78.00
2017-09-19T19:08:35.032Z,78.00
2017-09-19T19:11:02.472Z,78.20
2017-09-19T19:13:29.900Z,77.90
2017-09-19T19:15:57.524Z,77.90
2017-09-19T19:18:24.956Z,77.80
2017-09-19T19:20:52.777Z,78.70
2017-09-19T19:23:20.230Z,78.70
2017-09-19T19:25:47.667Z,78.70
2017-09-19T19:28:15.121Z,78.40
2017-09-19T19:30:42.954Z,79.00
2017-09-19T19:33:10.389Z,79.00
2017-09-19T19:35:38.751Z,79.10
2017-09-19T19:38:06.212Z,79.10
2017-09-19T19:40:33.643Z,78.50
2017-09-19T19:43:01.468Z,78.10
2017-09-19T19:45:28.907Z,78.10
2017-09-19T19:47:56.341Z,78.00
2017-09-19T19:50:24.172Z,77.90
2017-09-19T19:52:51.620Z,77.90
2017-09-19T19:55:19.039Z,77.80
2017-09-19T19:57:46.468Z,78.20
2017-09-19T20:00:13.979Z,78.40
2017-09-19T20:02:41.401Z,78.50
2017-09-19T20:05:08.828Z,78.40
2017-09-19T20:07:36.279Z,78.60
2017-09-19T20:10:03.720Z,78.70
2017-09-19T20:12:31.157Z,78.50
2017-09-19T20:14:59.375Z,78.90
2017-09-19T20:17:26.819Z,79.10
2017-09-19T20:19:54.243Z,79.20
2017-09-19T20:22:21.679Z,79.20
2017-09-19T20:24:49.114Z,79.00
2017-09-19T20:27:17.357Z,79.10
2017-09-19T20:29:45.272Z,79.40
2017-09-19T20:32:12.702Z,79.40
2017-09-19T20:34:40.609Z,79.30
2017-09-19T20:37:08.382Z,79.30
2017-09-19T20:39:35.810Z,79.00
2017-09-19T20:42:03.704Z,78.90
2017-09-19T20:44:31.963Z,78.90
2017-09-19T20:46:59.389Z,78.80
2017-09-19T20:49:26.823Z,78.40
2017-09-19T20:51:54.290Z,78.90
2017-09-19T20:54:22.346Z,78.80
2017-09-19T20:56:49.772Z,78.50
2017-09-19T20:59:17.224Z,78.10
2017-09-19T21:01:44.741Z,77.80
2017-09-19T21:04:17.906Z,77.80
2017-09-19T21:06:51.392Z,77.90
2017-09-19T21:09:25.128Z,77.90
2017-09-19T21:11:58.304Z,77.90
2017-09-19T21:14:31.395Z,77.50
2017-09-19T21:17:05.047Z,77.60
2017-09-19T21:19:32.002Z,78.00
2017-09-19T21:21:59.626Z,78.50
2017-09-19T21:24:27.054Z,78.60
2017-09-19T21:26:54.970Z,78.70
2017-09-19T21:29:22.392Z,78.70
2017-09-19T21:31:50.199Z,78.30
2017-09-19T21:34:17.637Z,78.30
2017-09-19T21:36:45.067Z,78.10
2017-09-19T21:39:12.481Z,78.30
2017-09-19T21:41:39.935Z,78.00
2017-09-19T21:44:07.694Z,78.00
2017-09-19T21:46:35.114Z,77.20
2017-09-19T21:49:02.556Z,77.30
2017-09-19T21:51:29.997Z,77.90
2017-09-19T21:53:57.447Z,77.60
2017-09-19T21:56:24.875Z,77.50
2017-09-19T21:58:52.338Z,77.70
2017-09-19T22:01:19.750Z,77.90
2017-09-19T22:03:47.193Z,77.60
2017-09-19T22:06:15.360Z,77.30
2017-09-19T22:08:42.836Z,77.40
2017-09-19T22:11:10.483Z,77.50
2017-09-19T22:13:37.951Z,77.50
2017-09-19T22:16:05.429Z,77.40
2017-09-19T22:18:33.032Z,77.50
2017-09-19T22:21:00.472Z,77.80
2017-09-19T22:23:27.928Z,77.70
2017-09-19T22:25:55.391Z,77.60
2017-09-19T22:28:22.828Z,77.60
2017-09-19T22:30:50.271Z,77.70
2017-09-19T22:33:18.113Z,77.50
2017-09-19T22:35:45.636Z,77.50
2017-09-19T22:38:13.147Z,77.50
2017-09-19T22:40:40.579Z,77.70
2017-09-19T22:43:08.035Z,77.60
2017-09-19T22:45:35.464Z,77.90
2017-09-19T22:48:02.883Z,77.90
2017-09-19T22:50:30.414Z,77.90
2017-09-19T22:52:58.087Z,78.00
2017-09-19T22:55:26.099Z,78.10
2017-09-19T22:57:53.523Z,78.10
2017-09-19T23:00:21.083Z,78.10
2017-09-19T23:02:48.520Z,78.10
2017-09-19T23:05:15.996Z,78.20
2017-09-19T23:07:43.482Z,78.10
2017-09-19T23:10:10.917Z,78.20
2017-09-19T23:12:38.358Z,78.20
2017-09-19T23:15:06.196Z,78.30
2017-09-19T23:17:33.624Z,78.30
2017-09-19T23:20:01.070Z,78.30
2017-09-19T23:22:28.505Z,78.20
2017-09-19T23:24:56.407Z,78.20
2017-09-19T23:27:23.879Z,78.10
2017-09-19T23:29:51.353Z,78.20
2017-09-19T23:32:18.760Z,78.30
2017-09-19T23:34:46.767Z,78.10
2017-09-19T23:37:14.203Z,78.10
2017-09-19T23:39:42.027Z,78.20
2017-09-19T23:42:09.783Z,78.20
2017-09-19T23:44:37.228Z,78.40
2017-09-19T23:47:04.648Z,78.30
2017-09-19T23:49:32.585Z,78.20
2017-09-19T23:52:00.048Z,78.20
2017-09-19T23:54:27.474Z,77.90
2017-09-19T23:56:54.942Z,77.80
2017-09-19T23:59:22.377Z,77.80
